sensor_id;sensor_type;location;lat;lon;timestamp;pressure;altitude;pressure_sealevel;temperature;humidity
70954;BME280;58618;47.490;8.736;2023-02-18T00:01:44;97782.97;;;9.65;100.00
70954;BME280;58618;47.490;8.736;2023-02-18T00:04:11;97780.16;;;9.67;100.00
70954;BME280;58618;47.490;8.736;2023-02-18T00:06:39;97789.69;;;9.66;100.00
70954;BME280;58618;47.490;8.736;2023-02-18T00:09:06;97768.59;;;9.69;100.00
70954;BME280;58618;47.490;8.736;2023-02-18T00:11:35;97771.38;;;9.85;100.00
70954;BME280;58618;47.490;8.736;2023-02-18T00:14:05;97765.16;;;9.81;100.00
70954;BME280;58618;47.490;8.736;2023-02-18T00:16:32;97765.16;;;9.81;100.00
70954;BME280;58618;47.490;8.736;2023-02-18T00:19:02;97776.09;;;9.88;100.00
70954;BME280;58618;47.490;8.736;2023-02-18T00:21:31;97770.44;;;9.91;100.00
70954;BME280;58618;47.490;8.736;2023-02-18T00:23:59;97765.34;;;9.96;100.00
70954;BME280;58618;47.490;8.736;2023-02-18T00:26:27;97763.50;;;9.91;100.00
70954;BME280;58618;47.490;8.736;2023-02-18T00:28:54;97758.41;;;9.96;100.00
70954;BME280;58618;47.490;8.736;2023-02-18T00:31:23;97753.03;;;9.98;100.00
70954;BME280;58618;47.490;8.736;2023-02-18T00:33:51;97757.63;;;9.96;100.00
70954;BME280;58618;47.490;8.736;2023-02-18T00:36:20;97752.41;;;9.91;100.00
70954;BME280;58618;47.490;8.736;2023-02-18T00:38:49;97748.97;;;9.85;100.00
70954;BME280;58618;47.490;8.736;2023-02-18T00:41:17;97751.47;;;9.80;100.00
70954;BME280;58618;47.490;8.736;2023-02-18T00:43:44;97751.97;;;9.77;100.00
70954;BME280;58618;47.490;8.736;2023-02-18T00:46:11;97743.91;;;9.73;100.00
70954;BME280;58618;47.490;8.736;2023-02-18T00:48:39;97744.38;;;9.70;100.00
70954;BME280;58618;47.490;8.736;2023-02-18T00:51:07;97739.53;;;9.74;100.00
70954;BME280;58618;47.490;8.736;2023-02-18T00:53:35;97742.44;;;9.78;100.00
70954;BME280;58618;47.490;8.736;2023-02-18T00:56:04;97753.69;;;9.88;100.00
70954;BME280;58618;47.490;8.736;2023-02-18T00:58:33;97744.53;;;9.81;100.00
70954;BME280;58618;47.490;8.736;2023-02-18T01:01:00;97734.09;;;9.70;100.00
70954;BME280;58618;47.490;8.736;2023-02-18T01:03:27;97737.81;;;9.80;100.00
70954;BME280;58618;47.490;8.736;2023-02-18T01:05:55;97736.44;;;9.72;100.00
70954;BME280;58618;47.490;8.736;2023-02-18T01:08:22;97725.81;;;9.68;100.00
70954;BME280;58618;47.490;8.736;2023-02-18T01:10:54;97729.25;;;9.57;100.00
70954;BME280;58618;47.490;8.736;2023-02-18T01:13:23;97715.19;;;9.48;100.00
70954;BME280;58618;47.490;8.736;2023-02-18T01:15:50;97723.06;;;9.58;100.00
70954;BME280;58618;47.490;8.736;2023-02-18T01:18:18;97726.78;;;9.46;100.00
70954;BME280;58618;47.490;8.736;2023-02-18T01:20:46;97723.19;;;9.30;100.00
70954;BME280;58618;47.490;8.736;2023-02-18T01:23:14;97712.47;;;9.21;100.00
70954;BME280;58618;47.490;8.736;2023-02-18T01:25:41;97710.75;;;9.10;100.00
70954;BME280;58618;47.490;8.736;2023-02-18T01:28:11;97709.72;;;9.11;100.00
70954;BME280;58618;47.490;8.736;2023-02-18T01:30:39;97695.84;;;8.96;100.00
70954;BME280;58618;47.490;8.736;2023-02-18T01:33:07;97688.34;;;8.94;100.00
70954;BME280;58618;47.490;8.736;2023-02-18T01:35:36;97698.31;;;8.90;100.00
70954;BME280;58618;47.490;8.736;2023-02-18T01:38:04;97685.84;;;8.82;100.00
70954;BME280;58618;47.490;8.736;2023-02-18T01:40:31;97691.13;;;8.76;100.00
70954;BME280;58618;47.490;8.736;2023-02-18T01:42:58;97686.78;;;8.76;100.00
70954;BME280;58618;47.490;8.736;2023-02-18T01:45:48;97693.47;;;8.77;100.00
70954;BME280;58618;47.490;8.736;2023-02-18T01:48:19;97687.47;;;8.72;100.00
70954;BME280;58618;47.490;8.736;2023-02-18T01:50:50;97695.41;;;8.70;100.00
70954;BME280;58618;47.490;8.736;2023-02-18T01:53:21;97681.28;;;8.56;100.00
70954;BME280;58618;47.490;8.736;2023-02-18T01:55:49;97683.00;;;8.67;100.00
70954;BME280;58618;47.490;8.736;2023-02-18T01:58:17;97697.06;;;8.76;100.00
70954;BME280;58618;47.490;8.736;2023-02-18T02:00:45;97705.88;;;8.80;100.00
70954;BME280;58618;47.490;8.736;2023-02-18T02:03:15;97691.06;;;8.87;100.00
70954;BME280;58618;47.490;8.736;2023-02-18T02:05:43;97664.31;;;8.72;100.00
70954;BME280;58618;47.490;8.736;2023-02-18T02:08:10;97694.50;;;9.10;100.00
70954;BME280;58618;47.490;8.736;2023-02-18T02:10:46;97689.56;;;9.20;100.00
70954;BME280;58618;47.490;8.736;2023-02-18T02:13:23;97689.16;;;9.28;100.00
70954;BME280;58618;47.490;8.736;2023-02-18T02:16:00;97689.44;;;9.48;100.00
70954;BME280;58618;47.490;8.736;2023-02-18T02:18:42;97688.03;;;9.57;100.00
70954;BME280;58618;47.490;8.736;2023-02-18T02:24:52;97685.00;;;9.60;100.00
70954;BME280;58618;47.490;8.736;2023-02-18T02:27:24;97685.53;;;9.62;100.00
70954;BME280;58618;47.490;8.736;2023-02-18T02:33:06;97679.34;;;9.63;100.00
70954;BME280;58618;47.490;8.736;2023-02-18T02:35:40;97675.22;;;9.62;100.00
70954;BME280;58618;47.490;8.736;2023-02-18T02:38:17;97682.56;;;9.70;100.00
70954;BME280;58618;47.490;8.736;2023-02-18T02:40:47;97678.84;;;9.61;100.00
70954;BME280;58618;47.490;8.736;2023-02-18T02:43:25;97671.09;;;9.61;100.00
70954;BME280;58618;47.490;8.736;2023-02-18T02:45:58;97672.06;;;9.55;100.00
70954;BME280;58618;47.490;8.736;2023-02-18T02:48:32;97673.13;;;9.59;100.00
70954;BME280;58618;47.490;8.736;2023-02-18T02:51:06;97658.81;;;9.68;100.00
70954;BME280;58618;47.490;8.736;2023-02-18T02:53:40;97655.88;;;9.60;100.00
70954;BME280;58618;47.490;8.736;2023-02-18T02:56:12;97660.03;;;9.61;100.00
70954;BME280;58618;47.490;8.736;2023-02-18T02:58:39;97657.59;;;9.54;100.00
70954;BME280;58618;47.490;8.736;2023-02-18T03:01:17;97642.00;;;9.44;100.00
70954;BME280;58618;47.490;8.736;2023-02-18T03:04:20;97642.47;;;9.41;100.00
70954;BME280;58618;47.490;8.736;2023-02-18T03:07:12;97647.22;;;9.49;100.00
70954;BME280;58618;47.490;8.736;2023-02-18T03:09:50;97630.66;;;9.23;100.00
70954;BME280;58618;47.490;8.736;2023-02-18T03:12:26;97643.66;;;9.17;100.00
70954;BME280;58618;47.490;8.736;2023-02-18T03:14:58;97633.00;;;9.25;100.00
70954;BME280;58618;47.490;8.736;2023-02-18T03:17:34;97635.00;;;9.23;100.00
70954;BME280;58618;47.490;8.736;2023-02-18T03:20:06;97631.59;;;9.17;100.00
70954;BME280;58618;47.490;8.736;2023-02-18T03:22:38;97631.09;;;9.20;100.00
70954;BME280;58618;47.490;8.736;2023-02-18T03:25:07;97640.66;;;9.20;100.00
70954;BME280;58618;47.490;8.736;2023-02-18T03:27:41;97637.38;;;9.08;100.00
70954;BME280;58618;47.490;8.736;2023-02-18T03:30:13;97640.94;;;8.90;100.00
70954;BME280;58618;47.490;8.736;2023-02-18T03:32:44;97636.50;;;8.85;100.00
70954;BME280;58618;47.490;8.736;2023-02-18T03:35:15;97634.69;;;8.69;100.00
70954;BME280;58618;47.490;8.736;2023-02-18T03:37:48;97633.13;;;8.68;100.00
70954;BME280;58618;47.490;8.736;2023-02-18T03:40:17;97632.09;;;8.69;100.00
70954;BME280;58618;47.490;8.736;2023-02-18T03:42:45;97637.81;;;8.71;100.00
70954;BME280;58618;47.490;8.736;2023-02-18T03:45:12;97622.56;;;8.53;100.00
70954;BME280;58618;47.490;8.736;2023-02-18T03:47:39;97636.34;;;8.47;100.00
70954;BME280;58618;47.490;8.736;2023-02-18T03:50:07;97633.59;;;8.37;100.00
70954;BME280;58618;47.490;8.736;2023-02-18T03:52:34;97651.78;;;8.47;100.00
70954;BME280;58618;47.490;8.736;2023-02-18T03:55:04;97646.19;;;8.50;100.00
70954;BME280;58618;47.490;8.736;2023-02-18T03:57:32;97649.75;;;8.49;100.00
70954;BME280;58618;47.490;8.736;2023-02-18T03:59:59;97630.28;;;8.53;100.00
70954;BME280;58618;47.490;8.736;2023-02-18T04:02:26;97639.38;;;8.72;100.00
70954;BME280;58618;47.490;8.736;2023-02-18T04:04:53;97632.84;;;8.81;100.00
70954;BME280;58618;47.490;8.736;2023-02-18T04:07:20;97640.63;;;8.86;100.00
70954;BME280;58618;47.490;8.736;2023-02-18T04:09:47;97635.72;;;8.85;100.00
70954;BME280;58618;47.490;8.736;2023-02-18T04:12:16;97634.22;;;9.06;100.00
70954;BME280;58618;47.490;8.736;2023-02-18T04:14:43;97640.56;;;8.98;100.00
70954;BME280;58618;47.490;8.736;2023-02-18T04:17:10;97640.78;;;8.97;100.00
70954;BME280;58618;47.490;8.736;2023-02-18T04:19:37;97641.44;;;9.04;100.00
70954;BME280;58618;47.490;8.736;2023-02-18T04:22:05;97642.19;;;9.04;100.00
70954;BME280;58618;47.490;8.736;2023-02-18T04:24:32;97633.16;;;9.02;100.00
70954;BME280;58618;47.490;8.736;2023-02-18T04:26:59;97644.22;;;9.02;100.00
70954;BME280;58618;47.490;8.736;2023-02-18T04:29:27;97642.34;;;8.98;100.00
70954;BME280;58618;47.490;8.736;2023-02-18T04:31:54;97634.09;;;8.96;100.00
70954;BME280;58618;47.490;8.736;2023-02-18T04:34:22;97636.56;;;8.90;100.00
70954;BME280;58618;47.490;8.736;2023-02-18T04:36:49;97635.00;;;8.89;100.00
70954;BME280;58618;47.490;8.736;2023-02-18T04:39:16;97626.59;;;8.77;100.00
70954;BME280;58618;47.490;8.736;2023-02-18T04:41:43;97625.31;;;8.63;100.00
70954;BME280;58618;47.490;8.736;2023-02-18T04:44:10;97626.22;;;8.57;100.00
70954;BME280;58618;47.490;8.736;2023-02-18T04:46:39;97620.38;;;8.45;100.00
70954;BME280;58618;47.490;8.736;2023-02-18T04:49:06;97630.75;;;8.50;100.00
70954;BME280;58618;47.490;8.736;2023-02-18T04:51:33;97637.00;;;8.54;100.00
70954;BME280;58618;47.490;8.736;2023-02-18T04:54:02;97635.28;;;8.60;100.00
70954;BME280;58618;47.490;8.736;2023-02-18T04:56:30;97637.94;;;8.65;100.00
70954;BME280;58618;47.490;8.736;2023-02-18T04:58:57;97636.84;;;8.61;100.00
70954;BME280;58618;47.490;8.736;2023-02-18T05:01:24;97638.44;;;8.62;100.00
70954;BME280;58618;47.490;8.736;2023-02-18T05:03:52;97633.13;;;8.68;100.00
70954;BME280;58618;47.490;8.736;2023-02-18T05:06:19;97631.25;;;8.64;100.00
70954;BME280;58618;47.490;8.736;2023-02-18T05:08:46;97625.03;;;8.76;100.00
70954;BME280;58618;47.490;8.736;2023-02-18T05:11:13;97626.13;;;8.80;100.00
70954;BME280;58618;47.490;8.736;2023-02-18T05:13:41;97620.06;;;8.86;100.00
70954;BME280;58618;47.490;8.736;2023-02-18T05:16:08;97617.84;;;8.78;100.00
70954;BME280;58618;47.490;8.736;2023-02-18T05:18:35;97627.69;;;8.81;100.00
70954;BME280;58618;47.490;8.736;2023-02-18T05:21:04;97625.34;;;9.13;100.00
70954;BME280;58618;47.490;8.736;2023-02-18T05:23:32;97632.53;;;9.11;100.00
70954;BME280;58618;47.490;8.736;2023-02-18T05:25:59;97628.63;;;9.09;100.00
70954;BME280;58618;47.490;8.736;2023-02-18T05:28:26;97631.66;;;9.06;100.00
70954;BME280;58618;47.490;8.736;2023-02-18T05:30:53;97630.34;;;9.20;100.00
70954;BME280;58618;47.490;8.736;2023-02-18T05:33:20;97630.50;;;9.13;100.00
70954;BME280;58618;47.490;8.736;2023-02-18T05:35:48;97623.50;;;9.09;100.00
70954;BME280;58618;47.490;8.736;2023-02-18T05:38:16;97624.66;;;9.18;100.00
70954;BME280;58618;47.490;8.736;2023-02-18T05:40:44;97619.19;;;9.14;100.00
70954;BME280;58618;47.490;8.736;2023-02-18T05:43:11;97628.78;;;9.02;100.00
70954;BME280;58618;47.490;8.736;2023-02-18T05:45:38;97626.44;;;9.01;100.00
70954;BME280;58618;47.490;8.736;2023-02-18T05:48:05;97623.78;;;8.96;100.00
70954;BME280;58618;47.490;8.736;2023-02-18T05:50:33;97626.44;;;9.01;100.00
70954;BME280;58618;47.490;8.736;2023-02-18T05:53:00;97626.06;;;9.09;100.00
70954;BME280;58618;47.490;8.736;2023-02-18T05:55:28;97628.78;;;9.19;100.00
70954;BME280;58618;47.490;8.736;2023-02-18T05:57:55;97625.59;;;9.12;100.00
70954;BME280;58618;47.490;8.736;2023-02-18T06:00:22;97624.66;;;9.18;100.00
70954;BME280;58618;47.490;8.736;2023-02-18T06:02:50;97622.50;;;9.31;100.00
70954;BME280;58618;47.490;8.736;2023-02-18T06:05:17;97624.63;;;9.35;100.00
70954;BME280;58618;47.490;8.736;2023-02-18T06:07:44;97621.44;;;9.27;100.00
70954;BME280;58618;47.490;8.736;2023-02-18T06:10:12;97620.66;;;9.27;100.00
70954;BME280;58618;47.490;8.736;2023-02-18T06:12:41;97624.84;;;9.33;100.00
70954;BME280;58618;47.490;8.736;2023-02-18T06:15:08;97633.91;;;9.36;100.00
70954;BME280;58618;47.490;8.736;2023-02-18T06:17:35;97641.88;;;9.34;100.00
70954;BME280;58618;47.490;8.736;2023-02-18T06:20:03;97633.44;;;9.22;100.00
70954;BME280;58618;47.490;8.736;2023-02-18T06:22:30;97637.81;;;9.38;99.62
70954;BME280;58618;47.490;8.736;2023-02-18T06:24:57;97637.50;;;9.35;99.62
70954;BME280;58618;47.490;8.736;2023-02-18T06:27:24;97628.44;;;9.32;100.00
70954;BME280;58618;47.490;8.736;2023-02-18T06:29:53;97633.44;;;9.22;100.00
70954;BME280;58618;47.490;8.736;2023-02-18T06:32:20;97623.16;;;9.22;100.00
70954;BME280;58618;47.490;8.736;2023-02-18T06:34:49;97631.88;;;9.21;100.00
70954;BME280;58618;47.490;8.736;2023-02-18T06:37:16;97625.72;;;9.22;100.00
70954;BME280;58618;47.490;8.736;2023-02-18T06:39:43;97614.13;;;9.19;100.00
70954;BME280;58618;47.490;8.736;2023-02-18T06:42:10;97624.78;;;9.28;99.87
70954;BME280;58618;47.490;8.736;2023-02-18T06:44:37;97619.22;;;9.36;99.81
70954;BME280;58618;47.490;8.736;2023-02-18T06:47:06;97618.47;;;9.36;99.68
70954;BME280;58618;47.490;8.736;2023-02-18T06:49:33;97609.41;;;9.33;99.26
70954;BME280;58618;47.490;8.736;2023-02-18T06:52:01;97616.44;;;9.21;100.00
70954;BME280;58618;47.490;8.736;2023-02-18T06:54:28;97606.16;;;9.21;100.00
70954;BME280;58618;47.490;8.736;2023-02-18T06:56:55;97608.19;;;9.36;99.15
70954;BME280;58618;47.490;8.736;2023-02-18T06:59:24;97616.56;;;9.48;99.37
70954;BME280;58618;47.490;8.736;2023-02-18T07:01:51;97617.81;;;9.45;98.89
70954;BME280;58618;47.490;8.736;2023-02-18T07:04:19;97621.06;;;9.57;97.73
70954;BME280;58618;47.490;8.736;2023-02-18T07:06:46;97615.56;;;9.70;98.12
70954;BME280;58618;47.490;8.736;2023-02-18T07:09:13;97612.44;;;9.68;97.22
70954;BME280;58618;47.490;8.736;2023-02-18T07:11:40;97614.63;;;9.77;96.70
70954;BME280;58618;47.490;8.736;2023-02-18T07:14:07;97623.44;;;9.81;97.10
70954;BME280;58618;47.490;8.736;2023-02-18T07:16:34;97609.47;;;9.77;97.01
70954;BME280;58618;47.490;8.736;2023-02-18T07:19:01;97607.00;;;9.87;96.27
70954;BME280;58618;47.490;8.736;2023-02-18T07:21:30;97614.06;;;9.96;94.93
70954;BME280;58618;47.490;8.736;2023-02-18T07:23:57;97604.16;;;10.10;94.17
70954;BME280;58618;47.490;8.736;2023-02-18T07:26:24;97615.72;;;10.24;93.45
70954;BME280;58618;47.490;8.736;2023-02-18T07:28:51;97611.13;;;10.31;93.22
70954;BME280;58618;47.490;8.736;2023-02-18T07:31:18;97601.31;;;10.28;92.90
70954;BME280;58618;47.490;8.736;2023-02-18T07:33:46;97617.22;;;10.47;92.10
70954;BME280;58618;47.490;8.736;2023-02-18T07:36:13;97614.44;;;10.53;91.17
70954;BME280;58618;47.490;8.736;2023-02-18T07:38:41;97622.72;;;10.55;91.70
70954;BME280;58618;47.490;8.736;2023-02-18T07:41:16;97617.06;;;10.58;90.93
70954;BME280;58618;47.490;8.736;2023-02-18T07:43:44;97622.31;;;10.69;90.35
70954;BME280;58618;47.490;8.736;2023-02-18T07:46:11;97619.69;;;10.64;90.74
70954;BME280;58618;47.490;8.736;2023-02-18T07:48:38;97623.09;;;10.69;90.24
70954;BME280;58618;47.490;8.736;2023-02-18T07:51:07;97617.75;;;10.76;89.93
70954;BME280;58618;47.490;8.736;2023-02-18T07:53:34;97613.34;;;10.76;88.94
70954;BME280;58618;47.490;8.736;2023-02-18T07:56:06;97619.66;;;10.90;88.73
70954;BME280;58618;47.490;8.736;2023-02-18T07:58:35;97601.81;;;10.84;88.62
70954;BME280;58618;47.490;8.736;2023-02-18T08:01:04;97597.78;;;10.98;87.68
70954;BME280;58618;47.490;8.736;2023-02-18T08:03:32;97595.03;;;11.10;86.69
70954;BME280;58618;47.490;8.736;2023-02-18T08:06:01;97624.88;;;11.32;86.22
70954;BME280;58618;47.490;8.736;2023-02-18T08:08:30;97624.88;;;11.37;86.38
70954;BME280;58618;47.490;8.736;2023-02-18T08:10:59;97634.53;;;11.47;85.61
70954;BME280;58618;47.490;8.736;2023-02-18T08:13:29;97618.72;;;11.43;85.21
70954;BME280;58618;47.490;8.736;2023-02-18T08:15:56;97632.66;;;11.42;85.20
70954;BME280;58618;47.490;8.736;2023-02-18T08:18:24;97629.91;;;11.54;84.72
70954;BME280;58618;47.490;8.736;2023-02-18T08:20:52;97611.53;;;11.46;84.91
70954;BME280;58618;47.490;8.736;2023-02-18T08:23:21;97638.25;;;11.66;84.83
70954;BME280;58618;47.490;8.736;2023-02-18T08:25:52;97639.03;;;11.67;83.82
70954;BME280;58618;47.490;8.736;2023-02-18T08:28:21;97636.19;;;11.68;83.48
70954;BME280;58618;47.490;8.736;2023-02-18T08:30:52;97628.19;;;11.70;83.80
70954;BME280;58618;47.490;8.736;2023-02-18T08:33:20;97614.22;;;11.71;82.49
70954;BME280;58618;47.490;8.736;2023-02-18T08:35:49;97635.53;;;11.88;82.45
70954;BME280;58618;47.490;8.736;2023-02-18T08:38:17;97634.00;;;11.92;82.26
70954;BME280;58618;47.490;8.736;2023-02-18T08:40:44;97626.19;;;11.77;81.93
70954;BME280;58618;47.490;8.736;2023-02-18T08:43:12;97635.03;;;11.91;83.04
70954;BME280;58618;47.490;8.736;2023-02-18T08:45:40;97637.63;;;11.96;82.26
70954;BME280;58618;47.490;8.736;2023-02-18T08:48:10;97627.22;;;11.76;82.28
70954;BME280;58618;47.490;8.736;2023-02-18T08:50:38;97627.81;;;11.98;81.99
70954;BME280;58618;47.490;8.736;2023-02-18T08:53:05;97616.41;;;11.89;81.69
70954;BME280;58618;47.490;8.736;2023-02-18T08:55:33;97611.00;;;11.96;80.49
70954;BME280;58618;47.490;8.736;2023-02-18T08:58:03;97616.47;;;12.04;80.90
70954;BME280;58618;47.490;8.736;2023-02-18T09:00:32;97622.47;;;12.20;80.92
70954;BME280;58618;47.490;8.736;2023-02-18T09:03:00;97626.38;;;12.33;80.52
70954;BME280;58618;47.490;8.736;2023-02-18T09:05:28;97619.94;;;12.55;79.80
70954;BME280;58618;47.490;8.736;2023-02-18T09:07:56;97619.13;;;12.35;78.20
70954;BME280;58618;47.490;8.736;2023-02-18T09:10:23;97599.47;;;12.39;78.80
70954;BME280;58618;47.490;8.736;2023-02-18T09:12:51;97608.28;;;12.48;77.97
70954;BME280;58618;47.490;8.736;2023-02-18T09:15:18;97602.59;;;12.46;78.28
70954;BME280;58618;47.490;8.736;2023-02-18T09:17:45;97611.41;;;12.70;77.40
70954;BME280;58618;47.490;8.736;2023-02-18T09:20:12;97611.94;;;12.82;76.41
70954;BME280;58618;47.490;8.736;2023-02-18T09:22:41;97604.19;;;12.72;77.49
70954;BME280;58618;47.490;8.736;2023-02-18T09:25:09;97602.63;;;12.81;76.05
70954;BME280;58618;47.490;8.736;2023-02-18T09:27:36;97611.94;;;13.07;75.60
70954;BME280;58618;47.490;8.736;2023-02-18T09:30:04;97602.63;;;13.22;76.52
70954;BME280;58618;47.490;8.736;2023-02-18T09:32:32;97605.72;;;13.34;74.98
70954;BME280;58618;47.490;8.736;2023-02-18T09:34:59;97602.09;;;13.25;75.12
70954;BME280;58618;47.490;8.736;2023-02-18T09:37:27;97605.72;;;13.34;74.83
70954;BME280;58618;47.490;8.736;2023-02-18T09:39:56;97586.53;;;13.40;74.38
70954;BME280;58618;47.490;8.736;2023-02-18T09:42:28;97601.53;;;13.48;73.19
70954;BME280;58618;47.490;8.736;2023-02-18T09:44:59;97552.38;;;13.13;74.11
70954;BME280;58618;47.490;8.736;2023-02-18T09:47:31;97560.09;;;13.28;73.64
70954;BME280;58618;47.490;8.736;2023-02-18T09:50:04;97591.66;;;13.50;74.20
70954;BME280;58618;47.490;8.736;2023-02-18T09:52:34;97580.25;;;13.56;73.21
70954;BME280;58618;47.490;8.736;2023-02-18T09:55:16;97586.69;;;13.69;71.60
70954;BME280;58618;47.490;8.736;2023-02-18T09:57:46;97592.94;;;13.63;72.59
70954;BME280;58618;47.490;8.736;2023-02-18T10:00:19;97564.72;;;13.51;72.56
70954;BME280;58618;47.490;8.736;2023-02-18T10:02:53;97592.09;;;13.77;71.92
70954;BME280;58618;47.490;8.736;2023-02-18T10:05:23;97594.13;;;13.95;70.98
70954;BME280;58618;47.490;8.736;2023-02-18T10:07:54;97597.13;;;14.13;70.53
70954;BME280;58618;47.490;8.736;2023-02-18T10:10:32;97596.28;;;14.22;70.01
70954;BME280;58618;47.490;8.736;2023-02-18T10:13:03;97580.53;;;14.09;70.75
70954;BME280;58618;47.490;8.736;2023-02-18T10:15:31;97572.66;;;14.24;71.18
70954;BME280;58618;47.490;8.736;2023-02-18T10:17:59;97578.09;;;14.38;68.96
70954;BME280;58618;47.490;8.736;2023-02-18T10:20:28;97593.38;;;14.34;68.28
70954;BME280;58618;47.490;8.736;2023-02-18T10:22:57;97582.66;;;14.02;70.24
70954;BME280;58618;47.490;8.736;2023-02-18T10:25:28;97583.06;;;14.24;68.71
70954;BME280;58618;47.490;8.736;2023-02-18T10:28:01;97587.03;;;14.55;68.26
70954;BME280;58618;47.490;8.736;2023-02-18T10:30:31;97595.88;;;14.88;67.86
70954;BME280;58618;47.490;8.736;2023-02-18T10:33:10;97598.34;;;14.74;67.40
70954;BME280;58618;47.490;8.736;2023-02-18T10:35:47;97597.44;;;14.89;67.00
70954;BME280;58618;47.490;8.736;2023-02-18T10:38:27;97592.44;;;14.93;66.84
70954;BME280;58618;47.490;8.736;2023-02-18T10:41:06;97593.88;;;15.09;66.85
70954;BME280;58618;47.490;8.736;2023-02-18T10:43:42;97594.31;;;14.87;66.77
70954;BME280;58618;47.490;8.736;2023-02-18T10:46:37;97568.94;;;14.45;67.47
70954;BME280;58618;47.490;8.736;2023-02-18T10:53:24;97586.16;;;14.26;68.66
70954;BME280;58618;47.490;8.736;2023-02-18T10:56:07;97571.00;;;13.99;68.82
70954;BME280;58618;47.490;8.736;2023-02-18T10:58:36;97575.91;;;14.06;68.65
70954;BME280;58618;47.490;8.736;2023-02-18T11:01:22;97577.03;;;13.84;69.87
70954;BME280;58618;47.490;8.736;2023-02-18T11:04:10;97584.81;;;13.84;70.26
70954;BME280;58618;47.490;8.736;2023-02-18T11:09:51;97579.19;;;13.67;72.04
70954;BME280;58618;47.490;8.736;2023-02-18T11:12:55;97571.34;;;13.82;71.53
70954;BME280;58618;47.490;8.736;2023-02-18T11:15:54;97566.66;;;13.89;70.74
70954;BME280;58618;47.490;8.736;2023-02-18T11:18:29;97556.72;;;13.96;69.98
70954;BME280;58618;47.490;8.736;2023-02-18T11:20:59;97559.22;;;14.22;68.82
70954;BME280;58618;47.490;8.736;2023-02-18T11:23:27;97549.25;;;14.39;68.71
70954;BME280;58618;47.490;8.736;2023-02-18T11:25:57;97552.88;;;14.43;69.76
70954;BME280;58618;47.490;8.736;2023-02-18T11:28:40;97555.78;;;14.65;69.76
70954;BME280;58618;47.490;8.736;2023-02-18T11:31:11;97552.28;;;14.51;68.33
70954;BME280;58618;47.490;8.736;2023-02-18T11:33:43;97552.28;;;14.51;69.18
70954;BME280;58618;47.490;8.736;2023-02-18T11:36:18;97540.44;;;14.30;68.55
70954;BME280;58618;47.490;8.736;2023-02-18T11:38:52;97528.75;;;14.38;68.90
70954;BME280;58618;47.490;8.736;2023-02-18T11:41:27;97536.19;;;14.49;69.13
70954;BME280;58618;47.490;8.736;2023-02-18T11:43:58;97519.56;;;14.50;67.98
70954;BME280;58618;47.490;8.736;2023-02-18T11:46:27;97521.25;;;14.65;67.90
70954;BME280;58618;47.490;8.736;2023-02-18T11:48:54;97519.94;;;14.67;68.21
70954;BME280;58618;47.490;8.736;2023-02-18T11:51:25;97514.16;;;14.47;67.88
70954;BME280;58618;47.490;8.736;2023-02-18T11:53:56;97501.91;;;14.52;68.02
70954;BME280;58618;47.490;8.736;2023-02-18T11:56:25;97504.69;;;14.61;67.68
70954;BME280;58618;47.490;8.736;2023-02-18T11:58:54;97504.38;;;14.67;66.63
70954;BME280;58618;47.490;8.736;2023-02-18T12:01:33;97502.28;;;14.69;67.69
70954;BME280;58618;47.490;8.736;2023-02-18T12:04:07;97493.47;;;14.65;67.39
70954;BME280;58618;47.490;8.736;2023-02-18T12:06:40;97483.19;;;14.84;67.96
70954;BME280;58618;47.490;8.736;2023-02-18T12:09:21;97495.13;;;14.85;67.34
70954;BME280;58618;47.490;8.736;2023-02-18T12:11:53;97479.66;;;14.99;66.52
70954;BME280;58618;47.490;8.736;2023-02-18T12:14:22;97470.13;;;15.13;64.92
70954;BME280;58618;47.490;8.736;2023-02-18T12:17:13;97461.97;;;15.01;65.77
70954;BME280;58618;47.490;8.736;2023-02-18T12:19:53;97473.56;;;14.85;66.03
70954;BME280;58618;47.490;8.736;2023-02-18T12:22:33;97456.22;;;14.80;66.42
70954;BME280;58618;47.490;8.736;2023-02-18T12:25:22;97460.72;;;14.69;67.33
70954;BME280;58618;47.490;8.736;2023-02-18T12:27:57;97445.47;;;14.87;66.26
70954;BME280;58618;47.490;8.736;2023-02-18T12:30:40;97452.88;;;14.98;66.61
70954;BME280;58618;47.490;8.736;2023-02-18T12:33:20;97444.25;;;15.03;64.92
70954;BME280;58618;47.490;8.736;2023-02-18T12:36:02;97445.34;;;14.97;65.37
70954;BME280;58618;47.490;8.736;2023-02-18T12:41:35;97439.19;;;14.93;64.89
70954;BME280;58618;47.490;8.736;2023-02-18T12:44:16;97441.28;;;14.91;66.71
70954;BME280;58618;47.490;8.736;2023-02-18T12:46:59;97425.34;;;14.97;65.99
70954;BME280;58618;47.490;8.736;2023-02-18T12:49:43;97423.72;;;15.06;64.75
70954;BME280;58618;47.490;8.736;2023-02-18T12:52:23;97428.59;;;15.08;64.37
70954;BME280;58618;47.490;8.736;2023-02-18T12:55:20;97424.47;;;15.07;65.38
70954;BME280;58618;47.490;8.736;2023-02-18T12:58:00;97417.59;;;15.16;65.45
70954;BME280;58618;47.490;8.736;2023-02-18T13:00:44;97416.13;;;15.29;65.16
70954;BME280;58618;47.490;8.736;2023-02-18T13:03:27;97405.09;;;15.18;64.82
70954;BME280;58618;47.490;8.736;2023-02-18T13:06:10;97400.53;;;15.29;64.78
70954;BME280;58618;47.490;8.736;2023-02-18T13:08:48;97392.47;;;15.30;65.14
70954;BME280;58618;47.490;8.736;2023-02-18T13:11:24;97384.91;;;15.52;62.96
70954;BME280;58618;47.490;8.736;2023-02-18T13:14:00;97386.88;;;15.60;62.53
70954;BME280;58618;47.490;8.736;2023-02-18T13:16:31;97376.06;;;15.53;63.58
70954;BME280;58618;47.490;8.736;2023-02-18T13:19:02;97381.84;;;15.45;63.31
70954;BME280;58618;47.490;8.736;2023-02-18T13:21:33;97382.25;;;15.57;63.78
70954;BME280;58618;47.490;8.736;2023-02-18T13:24:05;97371.75;;;15.44;64.61
70954;BME280;58618;47.490;8.736;2023-02-18T13:26:33;97376.06;;;15.53;62.66
70954;BME280;58618;47.490;8.736;2023-02-18T13:29:14;97370.56;;;15.74;63.61
70954;BME280;58618;47.490;8.736;2023-02-18T13:31:55;97364.44;;;15.83;61.83
70954;BME280;58618;47.490;8.736;2023-02-18T13:34:48;97371.38;;;15.88;60.97
70954;BME280;58618;47.490;8.736;2023-02-18T13:37:22;97364.78;;;15.77;61.87